Kenema Airport

Jump to: basic info | weather | comments

Related pages: nearby airports | nearby navaids | notams | map

Basic information (top)

Codes: KEN GFKE
Location: lon 7.891290, lat -11.176600, elev 485 ft / 148 m msl
Status: medium_airport
Scheduled airline service: yes
Links: Wikipedia Mobile

Weather (top)

Current conditions for Roberts International Airport 111nm (205km) SSE (rec'd 2015/04/19 17:00Z):

GLRB 191700Z 21006KT 9999 TS BKN022 FEW028 CB 30/25 Q1009 RMK CB-SE TEMPO TS

Airport forecast for Roberts International Airport 111nm (205km) SSE (rec'd 2015/04/19 12:51Z):

TAF TAF GLRB 191000Z 1912/2018 20011KT 9000 SCT017 
      BECMG 1913/1915 23012KT 9999 
      TEMPO 1916/1920 26010KT 7000 RA/TSRA SCT004 BKN018 FEW027CB 
      BECMG 1921/1923 24005KT 9999 SCT015 FEW025CB

Latest comments (top)

No comments yet for Kenema Airport

More... (top)

See also NOTAMs and nearby airports and navaids, or visit the Kenema Airport page at the main OurAirports website..